Time;durP1;ratioP1;P1;durP2;ratioP2;P2;SDS_P1;SDS_P2;PMS_P1;PMS_P2;Temp;Humidity;BMP_temperature;BMP_pressure;BME280_temperature;BME280_humidity;BME280_pressure;Samples;Min_cycle;Max_cycle;Signal;HPM_P1;HPM_P2
2022/07/31 00:01:01;;;;;;;;;;;;;;;20.42;71.08;99203.94;5017136;28;19969;-70
2022/07/31 00:03:30;;;;;;;;;;;;;;;20.39;71.17;99204.06;5016682;28;19925;-70
2022/07/31 00:05:58;;;;;;;;;;;;;;;20.34;71.20;99196.53;5017287;28;19926;-70
2022/07/31 00:08:27;;;;;;;;;;;;;;;20.33;71.06;99194.00;5017237;28;20372;-70
2022/07/31 00:10:56;;;;;;;;;;;;;;;20.35;71.08;99197.34;5016531;28;19929;-70
2022/07/31 00:13:25;;;;;;;;;;;;;;;20.34;70.91;99191.34;5016620;28;19965;-70
2022/07/31 00:16:13;;;;;;;;;;;;;;;20.35;71.04;99190.41;5016729;28;20330;-70
2022/07/31 00:18:44;;;;;;;;;;;;;;;20.34;70.76;99190.50;5016478;28;19967;-70
2022/07/31 00:21:13;;;;;;;;;;;;;;;20.33;70.87;99184.47;4999472;28;20307;-71
2022/07/31 00:23:41;;;;;;;;;;;;;;;20.35;70.69;99187.81;5016394;28;19925;-70
2022/07/31 00:26:11;;;;;;;;;;;;;;;20.32;70.80;99187.13;5016525;28;20299;-70
2022/07/31 00:28:39;;;;;;;;;;;;;;;20.30;70.72;99183.78;5016517;28;19975;-70
2022/07/31 00:31:08;;;;;;;;;;;;;;;20.33;70.92;99184.47;5016698;28;20008;-70
2022/07/31 00:33:37;;;;;;;;;;;;;;;20.30;70.47;99179.41;5016064;28;19925;-70
2022/07/31 00:36:05;;;;;;;;;;;;;;;20.31;70.62;99188.88;4999299;28;19980;-70
2022/07/31 00:38:34;;;;;;;;;;;;;;;20.34;70.41;99185.31;5016380;28;19979;-70
2022/07/31 00:41:02;;;;;;;;;;;;;;;20.33;70.40;99188.81;5016359;28;19926;-70
2022/07/31 00:43:32;;;;;;;;;;;;;;;20.33;70.74;99188.81;4999026;28;19929;-70
2022/07/31 00:46:02;;;;;;;;;;;;;;;20.27;70.59;99189.09;5016243;28;20363;-70
2022/07/31 00:48:31;;;;;;;;;;;;;;;20.19;70.86;99186.00;5015812;28;19925;-70
2022/07/31 00:51:00;;;;;;;;;;;;;;;20.16;70.97;99181.81;5015795;28;19925;-71
2022/07/31 00:53:29;;;;;;;;;;;;;;;20.18;70.89;99176.56;5015779;28;19925;-70
2022/07/31 00:55:58;;;;;;;;;;;;;;;20.12;71.14;99182.88;4998223;28;19977;-70
2022/07/31 00:58:26;;;;;;;;;;;;;;;20.08;71.29;99184.75;5015955;28;19925;-70
2022/07/31 01:00:56;;;;;;;;;;;;;;;19.99;71.69;99187.78;5015848;28;19925;-70
2022/07/31 01:03:24;;;;;;;;;;;;;;;20.03;71.90;99186.72;5015602;28;19932;-70
2022/07/31 01:05:53;;;;;;;;;;;;;;;20.00;72.18;99178.25;5015539;28;19929;-70
2022/07/31 01:08:22;;;;;;;;;;;;;;;19.99;72.27;99186.94;5015683;28;19972;-70
2022/07/31 01:10:56;;;;;;;;;;;;;;;20.00;71.97;99186.88;5015979;28;19949;-71
2022/07/31 01:13:30;;;;;;;;;;;;;;;19.99;72.10;99187.78;5015688;28;19960;-70
2022/07/31 01:16:01;;;;;;;;;;;;;;;19.95;72.37;99183.66;5015699;28;19929;-70
2022/07/31 01:18:31;;;;;;;;;;;;;;;19.93;72.62;99185.50;5016011;28;19972;-70
2022/07/31 01:21:03;;;;;;;;;;;;;;;19.95;72.92;99183.66;4998076;28;19949;-69
2022/07/31 01:23:43;;;;;;;;;;;;;;;19.90;73.06;99180.44;4981853;28;19980;-70
2022/07/31 01:26:37;;;;;;;;;;;;;;;19.88;72.82;99182.28;5015265;28;20036;-70
2022/07/31 01:29:10;;;;;;;;;;;;;;;19.87;72.83;99174.56;4997634;28;19930;-70
2022/07/31 01:31:43;;;;;;;;;;;;;;;19.89;72.83;99173.56;5015439;28;19971;-70
2022/07/31 01:34:16;;;;;;;;;;;;;;;19.85;72.69;99172.03;4997570;28;19929;-69
2022/07/31 01:36:48;;;;;;;;;;;;;;;19.86;72.65;99168.56;4998106;28;19926;-70
2022/07/31 01:39:18;;;;;;;;;;;;;;;19.90;72.56;99175.25;4998211;28;19937;-70
2022/07/31 01:41:48;;;;;;;;;;;;;;;19.87;72.37;99164.19;5015229;28;19925;-70
2022/07/31 01:44:18;;;;;;;;;;;;;;;19.83;72.39;99165.25;5015506;28;20390;-70
2022/07/31 01:46:48;;;;;;;;;;;;;;;19.86;72.31;99165.97;5014780;28;19925;-70
2022/07/31 01:49:19;;;;;;;;;;;;;;;19.89;72.26;99165.78;4997653;28;20024;-70
2022/07/31 01:51:50;;;;;;;;;;;;;;;19.86;72.14;99165.97;5015342;28;19925;-71
2022/07/31 01:54:22;;;;;;;;;;;;;;;19.82;72.11;99167.00;4996662;28;20044;-71
2022/07/31 01:56:52;;;;;;;;;;;;;;;19.85;72.19;99160.84;4997153;28;20401;-70
2022/07/31 01:59:26;;;;;;;;;;;;;;;19.82;72.60;99156.63;4997948;28;19926;-70
2022/07/31 02:02:09;;;;;;;;;;;;;;;19.75;73.21;99160.44;5014995;28;19956;-71
2022/07/31 02:04:39;;;;;;;;;;;;;;;19.64;73.79;99159.25;5014783;28;19991;-70
2022/07/31 02:07:08;;;;;;;;;;;;;;;19.56;74.12;99159.59;4996944;28;19932;-71
2022/07/31 02:09:37;;;;;;;;;;;;;;;19.54;74.81;99161.41;4997492;28;20350;-71
2022/07/31 02:12:30;;;;;;;;;;;;;;;19.54;75.17;99160.56;4997476;28;20292;-71
2022/07/31 02:15:06;;;;;;;;;;;;;;;19.36;75.63;99162.25;4996894;28;20379;-72
2022/07/31 02:17:37;;;;;;;;;;;;;;;19.30;76.17;99160.72;5014292;28;19980;-73
2022/07/31 02:20:18;;;;;;;;;;;;;;;19.33;76.95;99157.16;5014375;28;19925;-73
2022/07/31 02:22:49;;;;;;;;;;;;;;;19.29;76.64;99155.63;5014923;28;20332;-74
2022/07/31 02:25:18;;;;;;;;;;;;;;;19.25;76.92;99149.75;4997064;28;19956;-74
2022/07/31 02:27:48;;;;;;;;;;;;;;;19.28;77.20;99151.34;4981046;28;19940;-74
2022/07/31 02:30:29;;;;;;;;;;;;;;;19.25;77.58;99143.72;4996991;28;20033;-75
2022/07/31 02:33:12;;;;;;;;;;;;;;;19.27;77.47;99144.50;5014878;28;20409;-76
2022/07/31 02:35:44;;;;;;;;;;;;;;;19.22;77.85;99149.03;5014186;28;20016;-76
2022/07/31 02:38:16;;;;;;;;;;;;;;;19.17;77.91;99151.00;5014165;28;19975;-76
2022/07/31 02:40:55;;;;;;;;;;;;;;;19.10;78.17;99144.41;4996889;28;20338;-75
2022/07/31 02:43:25;;;;;;;;;;;;;;;19.06;78.36;99150.63;5014285;28;19961;-75
2022/07/31 02:45:57;;;;;;;;;;;;;;;19.06;78.63;99142.84;5014480;28;19933;-75
2022/07/31 02:48:29;;;;;;;;;;;;;;;19.07;79.34;99149.72;5013963;28;19931;-76
2022/07/31 02:51:02;;;;;;;;;;;;;;;19.07;78.82;99142.81;4996863;28;20020;-76
2022/07/31 02:53:31;;;;;;;;;;;;;;;19.07;78.87;99144.53;4996487;28;20017;-76
2022/07/31 02:56:03;;;;;;;;;;;;;;;19.01;78.90;99144.78;5013967;28;19968;-77
2022/07/31 02:58:38;;;;;;;;;;;;;;;19.01;79.03;99144.78;4996822;28;19925;-77
2022/07/31 03:01:18;;;;;;;;;;;;;;;19.03;79.11;99158.50;5013987;28;19940;-77
2022/07/31 03:03:49;;;;;;;;;;;;;;;19.04;79.25;99152.44;4996859;28;19926;-77
2022/07/31 03:06:18;;;;;;;;;;;;;;;18.87;79.26;99153.16;4996425;28;20406;-77
2022/07/31 03:08:47;;;;;;;;;;;;;;;18.81;79.67;99147.41;4996416;28;19932;-77
2022/07/31 03:11:20;;;;;;;;;;;;;;;18.81;79.66;99144.84;4996674;28;19926;-77
2022/07/31 03:13:49;;;;;;;;;;;;;;;18.70;79.70;99146.13;4996334;28;19925;-76
2022/07/31 03:16:21;;;;;;;;;;;;;;;18.69;79.83;99149.59;4997046;28;19964;-77
2022/07/31 03:18:50;;;;;;;;;;;;;;;18.61;80.11;99156.00;4996304;28;19925;-78
2022/07/31 03:21:20;;;;;;;;;;;;;;;18.53;80.52;99147.72;4996621;28;19964;-78
2022/07/31 03:23:49;;;;;;;;;;;;;;;18.54;80.84;99152.84;4996766;28;20012;-77
2022/07/31 03:26:22;;;;;;;;;;;;;;;18.57;80.79;99157.88;4998639;28;20378;-77
2022/07/31 03:28:51;;;;;;;;;;;;;;;18.59;80.72;99148.31;4999764;28;19926;-77
2022/07/31 03:31:21;;;;;;;;;;;;;;;18.53;80.84;99145.97;5000061;28;20022;-77
2022/07/31 03:33:49;;;;;;;;;;;;;;;18.45;81.06;99150.56;5017690;28;19988;-77
2022/07/31 03:36:18;;;;;;;;;;;;;;;18.48;81.39;99155.66;5000416;28;19975;-77
2022/07/31 03:38:46;;;;;;;;;;;;;;;18.49;81.29;99157.34;5017494;28;19929;-77
2022/07/31 03:41:28;;;;;;;;;;;;;;;18.40;81.59;99157.72;5000074;28;19929;-77
2022/07/31 03:43:57;;;;;;;;;;;;;;;18.39;81.38;99153.44;4999641;28;19932;-76
2022/07/31 03:46:27;;;;;;;;;;;;;;;18.39;81.48;99161.19;5017926;28;19991;-77
2022/07/31 03:48:56;;;;;;;;;;;;;;;18.35;81.51;99159.63;4999674;28;19930;-76
2022/07/31 03:51:27;;;;;;;;;;;;;;;18.27;81.83;99164.25;4999879;28;19976;-76
2022/07/31 03:53:55;;;;;;;;;;;;;;;18.24;82.08;99161.78;4999449;28;19925;-76
2022/07/31 03:56:36;;;;;;;;;;;;;;;18.24;82.25;99161.78;4999459;28;19925;-76
2022/07/31 03:59:04;;;;;;;;;;;;;;;18.27;82.42;99171.16;4999686;28;19925;-76
2022/07/31 04:01:36;;;;;;;;;;;;;;;18.30;82.64;99166.72;4999644;28;19977;-76
2022/07/31 04:04:36;;;;;;;;;;;;;;;18.32;82.60;99170.09;4999930;28;19930;-77
2022/07/31 04:07:05;;;;;;;;;;;;;;;18.36;82.68;99170.78;4999549;28;19925;-76
2022/07/31 04:09:35;;;;;;;;;;;;;;;18.39;82.79;99179.28;5016915;28;19925;-77
2022/07/31 04:12:05;;;;;;;;;;;;;;;18.39;82.68;99176.69;5017009;28;19925;-76
2022/07/31 04:14:34;;;;;;;;;;;;;;;18.34;82.38;99167.44;4999387;28;19926;-76
2022/07/31 04:17:04;;;;;;;;;;;;;;;18.25;82.46;99170.38;4999388;28;19932;-76
2022/07/31 04:19:33;;;;;;;;;;;;;;;18.29;82.73;99174.53;4998980;28;19925;-76
2022/07/31 04:22:01;;;;;;;;;;;;;;;18.27;82.92;99178.91;5016315;28;19926;-77
2022/07/31 04:24:32;;;;;;;;;;;;;;;18.20;82.65;99180.91;5016786;28;19925;-76
2022/07/31 04:27:08;;;;;;;;;;;;;;;18.23;82.70;99187.69;5016367;28;19925;-76
2022/07/31 04:29:43;;;;;;;;;;;;;;;18.20;82.65;99180.91;4998708;28;20371;-76
2022/07/31 04:32:14;;;;;;;;;;;;;;;18.19;82.78;99183.56;4982778;28;19925;-76
2022/07/31 04:34:54;;;;;;;;;;;;;;;18.18;82.88;99193.06;4998939;28;19953;-77
2022/07/31 04:37:23;;;;;;;;;;;;;;;18.21;82.91;99192.91;4998855;28;20397;-77
2022/07/31 04:39:52;;;;;;;;;;;;;;;18.21;82.93;99198.06;4982949;28;19926;-78
2022/07/31 04:42:21;;;;;;;;;;;;;;;18.24;83.05;99203.13;5016252;28;20458;-77
2022/07/31 04:44:49;;;;;;;;;;;;;;;18.26;83.09;99196.16;5015975;28;19926;-77
2022/07/31 04:47:23;;;;;;;;;;;;;;;18.28;82.87;99196.97;5015965;28;19925;-76
2022/07/31 04:49:52;;;;;;;;;;;;;;;18.26;82.87;99196.16;5015878;28;19925;-77
2022/07/31 04:52:21;;;;;;;;;;;;;;;18.18;83.04;99197.38;5015758;28;19932;-77
2022/07/31 04:54:51;;;;;;;;;;;;;;;18.20;83.19;99199.00;5016097;28;19925;-77
2022/07/31 04:57:19;;;;;;;;;;;;;;;18.25;83.02;99217.75;4998542;28;19930;-77
2022/07/31 04:59:49;;;;;;;;;;;;;;;18.23;82.87;99209.22;4998659;28;19925;-77
2022/07/31 05:02:33;;;;;;;;;;;;;;;18.26;82.79;99206.50;5015853;28;19933;-78
2022/07/31 05:05:01;;;;;;;;;;;;;;;18.25;82.66;99209.13;4998296;28;19925;-77
2022/07/31 05:07:38;;;;;;;;;;;;;;;18.23;82.92;99210.94;4998386;28;19971;-77
2022/07/31 05:13:00;;;;;;;;;;;;;;;18.28;82.71;99225.38;4997714;28;20286;-77
2022/07/31 05:15:29;;;;;;;;;;;;;;;18.27;82.77;99225.41;4998352;28;20322;-77
2022/07/31 05:17:59;;;;;;;;;;;;;;;18.27;82.57;99228.84;4998285;28;20383;-77
2022/07/31 05:20:39;;;;;;;;;;;;;;;18.19;82.66;99230.88;5015778;28;20019;-77
2022/07/31 05:23:18;;;;;;;;;;;;;;;18.17;82.60;99224.94;4998064;28;19925;-77
2022/07/31 05:25:58;;;;;;;;;;;;;;;18.17;82.69;99227.53;5015616;28;20440;-77
2022/07/31 05:28:27;;;;;;;;;;;;;;;18.15;82.57;99228.47;4997718;28;19933;-77
2022/07/31 05:30:58;;;;;;;;;;;;;;;18.15;82.68;99234.50;4997670;28;19969;-77
2022/07/31 05:33:29;;;;;;;;;;;;;;;18.18;82.75;99234.38;4981635;28;19983;-76
2022/07/31 05:35:58;;;;;;;;;;;;;;;18.15;82.77;99231.91;4997587;28;19929;-77
2022/07/31 05:38:27;;;;;;;;;;;;;;;18.17;82.64;99237.84;4997516;28;19929;-77
2022/07/31 05:41:06;;;;;;;;;;;;;;;18.18;82.55;99234.38;5015065;28;19926;-77
2022/07/31 05:43:54;;;;;;;;;;;;;;;18.19;82.89;99238.63;4984863;28;19925;-77
2022/07/31 05:46:43;;;;;;;;;;;;;;;18.23;82.80;99237.63;5014498;28;19930;-78
2022/07/31 05:49:14;;;;;;;;;;;;;;;18.24;82.81;99239.28;4997059;28;19926;-78
2022/07/31 05:51:45;;;;;;;;;;;;;;;18.32;82.69;99246.75;4997326;28;19926;-77
2022/07/31 05:54:14;;;;;;;;;;;;;;;18.34;82.54;99247.53;4997431;28;20372;-78
2022/07/31 05:56:54;;;;;;;;;;;;;;;18.38;82.61;99252.50;5015001;28;20371;-77
2022/07/31 05:59:33;;;;;;;;;;;;;;;18.38;82.24;99252.50;4997547;28;19933;-76
2022/07/31 06:02:04;;;;;;;;;;;;;;;18.30;82.10;99258.91;5015080;28;19932;-77
2022/07/31 06:04:48;;;;;;;;;;;;;;;18.32;81.85;99262.25;5014937;28;20486;-77
2022/07/31 06:07:17;;;;;;;;;;;;;;;18.27;81.97;99259.00;5015082;28;19945;-78
2022/07/31 06:09:46;;;;;;;;;;;;;;;18.23;81.79;99263.47;5014760;28;19988;-78
2022/07/31 06:12:18;;;;;;;;;;;;;;;18.29;81.79;99267.53;5014476;28;19929;-78
2022/07/31 06:14:46;;;;;;;;;;;;;;;18.35;81.95;99273.34;4997613;28;19948;-78
2022/07/31 06:17:26;;;;;;;;;;;;;;;18.44;82.06;99285.88;5014830;28;19999;-78
2022/07/31 06:20:23;;;;;;;;;;;;;;;18.44;81.77;99277.28;4997296;28;20007;-78
2022/07/31 06:22:52;;;;;;;;;;;;;;;18.40;81.92;99280.91;4997929;28;19925;-80
2022/07/31 06:25:22;;;;;;;;;;;;;;;18.42;81.83;99285.13;4981856;28;20023;-79
2022/07/31 06:27:52;;;;;;;;;;;;;;;18.46;81.58;99286.69;4996876;28;19925;-78
2022/07/31 06:30:29;;;;;;;;;;;;;;;18.52;81.62;99288.22;5014166;28;19925;-78
2022/07/31 06:32:58;;;;;;;;;;;;;;;18.57;81.43;99292.28;4997116;28;19926;-78
2022/07/31 06:35:37;;;;;;;;;;;;;;;18.63;81.38;99293.78;4996742;28;19925;-77
2022/07/31 06:38:15;;;;;;;;;;;;;;;18.67;81.27;99298.78;4996779;28;19926;-79
2022/07/31 06:41:04;;;;;;;;;;;;;;;18.74;81.22;99291.59;5013972;28;19926;-78
2022/07/31 06:43:44;;;;;;;;;;;;;;;18.79;80.99;99299.22;4981647;28;19932;-79
2022/07/31 06:46:23;;;;;;;;;;;;;;;18.82;80.84;99305.09;4996775;28;20348;-78
2022/07/31 06:49:03;;;;;;;;;;;;;;;18.83;80.97;99311.09;4996882;28;19932;-79
2022/07/31 06:51:38;;;;;;;;;;;;;;;18.78;80.42;99302.69;5013987;28;19937;-79
2022/07/31 06:54:07;;;;;;;;;;;;;;;18.74;80.11;99312.28;5014083;28;20015;-78
2022/07/31 06:56:37;;;;;;;;;;;;;;;18.70;79.77;99319.34;4996451;28;19932;-80
2022/07/31 06:59:06;;;;;;;;;;;;;;;18.73;79.48;99311.47;4965108;28;20363;-78
2022/07/31 07:01:35;;;;;;;;;;;;;;;18.72;78.94;99320.13;5000442;28;19981;-78
2022/07/31 07:04:04;;;;;;;;;;;;;;;18.72;79.09;99321.84;5018170;28;19925;-78
2022/07/31 07:06:32;;;;;;;;;;;;;;;18.76;79.06;99314.84;5000457;28;20375;-78
2022/07/31 07:09:02;;;;;;;;;;;;;;;18.69;79.05;99333.16;5012506;28;20400;-75
2022/07/31 07:11:30;;;;;;;;;;;;;;;18.58;78.43;99326.72;5000221;28;19925;-75
2022/07/31 07:13:59;;;;;;;;;;;;;;;18.57;77.47;99330.22;5008018;28;19933;-74
2022/07/31 07:16:28;;;;;;;;;;;;;;;18.57;76.71;99336.22;5007812;28;20395;-74
2022/07/31 07:18:57;;;;;;;;;;;;;;;18.50;75.80;99334.78;4989311;28;20298;-73
2022/07/31 07:21:25;;;;;;;;;;;;;;;18.49;75.23;99333.13;5000046;28;19925;-73
2022/07/31 07:23:54;;;;;;;;;;;;;;;18.48;74.86;99338.31;5016224;28;19932;-73
2022/07/31 07:26:36;;;;;;;;;;;;;;;18.48;74.65;99341.75;5011490;28;19925;-73
2022/07/31 07:29:04;;;;;;;;;;;;;;;18.53;74.62;99333.81;5016542;28;19948;-72
2022/07/31 07:31:33;;;;;;;;;;;;;;;18.65;74.65;99344.53;5016040;28;19967;-73
2022/07/31 07:34:04;;;;;;;;;;;;;;;18.65;74.51;99349.72;5016020;28;19930;-73
2022/07/31 07:36:33;;;;;;;;;;;;;;;18.67;74.50;99353.06;5000000;28;19925;-73
2022/07/31 07:39:05;;;;;;;;;;;;;;;18.73;74.47;99347.69;5017465;28;19932;-73
2022/07/31 07:41:37;;;;;;;;;;;;;;;18.73;74.89;99347.69;5016513;28;19975;-73
2022/07/31 07:44:07;;;;;;;;;;;;;;;18.71;75.51;99349.44;5016201;28;19929;-74
2022/07/31 07:46:35;;;;;;;;;;;;;;;18.72;75.79;99356.31;5015940;28;20276;-74
2022/07/31 07:49:06;;;;;;;;;;;;;;;18.71;76.28;99364.97;5017417;28;20077;-74
2022/07/31 07:51:41;;;;;;;;;;;;;;;18.63;76.76;99366.19;5017044;28;19933;-74
2022/07/31 07:54:42;;;;;;;;;;;;;;;18.55;76.82;99368.19;5018997;28;20007;-73
2022/07/31 07:57:15;;;;;;;;;;;;;;;18.53;77.06;99370.84;5036769;28;20333;-74
2022/07/31 07:59:55;;;;;;;;;;;;;;;18.56;77.07;99372.47;5036873;28;19933;-74
2022/07/31 08:02:34;;;;;;;;;;;;;;;18.54;77.18;99372.56;5036523;28;19925;-74
2022/07/31 08:05:05;;;;;;;;;;;;;;;18.56;77.36;99375.91;5019008;28;19925;-74
2022/07/31 08:07:36;;;;;;;;;;;;;;;18.59;77.48;99378.41;5019107;28;20409;-74
2022/07/31 08:10:24;;;;;;;;;;;;;;;18.63;77.90;99382.53;5018647;28;19975;-74
2022/07/31 08:12:58;;;;;;;;;;;;;;;18.63;78.40;99382.53;5035801;28;19925;-75
2022/07/31 08:15:38;;;;;;;;;;;;;;;18.64;78.69;99379.03;5036743;28;19925;-74
2022/07/31 08:18:21;;;;;;;;;;;;;;;18.66;79.03;99386.75;5018882;28;19932;-73
2022/07/31 08:20:56;;;;;;;;;;;;;;;18.75;79.18;99383.81;5008401;28;19930;-75
2022/07/31 08:23:29;;;;;;;;;;;;;;;18.79;79.46;99387.13;5003105;28;19926;-75
2022/07/31 08:25:59;;;;;;;;;;;;;;;18.73;79.23;99389.03;4998788;28;19949;-73
2022/07/31 08:28:31;;;;;;;;;;;;;;;18.82;79.25;99386.97;4999257;28;19932;-73
2022/07/31 08:31:01;;;;;;;;;;;;;;;18.86;78.81;99384.22;5016178;28;19968;-73
2022/07/31 08:33:33;;;;;;;;;;;;;;;18.83;78.61;99392.13;5014897;28;19980;-73
2022/07/31 08:36:03;;;;;;;;;;;;;;;18.88;78.82;99384.19;5015945;28;19929;-73
2022/07/31 08:38:32;;;;;;;;;;;;;;;18.93;78.63;99385.66;4998933;28;20019;-73
2022/07/31 08:41:27;;;;;;;;;;;;;;;18.92;78.74;99398.66;5000793;28;20418;-73
2022/07/31 08:43:57;;;;;;;;;;;;;;;18.98;78.84;99393.28;4998371;28;19926;-73
2022/07/31 08:46:36;;;;;;;;;;;;;;;19.06;79.26;99401.53;5015958;28;19925;-73
2022/07/31 08:49:05;;;;;;;;;;;;;;;19.13;79.10;99397.81;4998413;28;19976;-73
2022/07/31 08:51:36;;;;;;;;;;;;;;;19.22;79.06;99400.03;4981677;28;19972;-73
2022/07/31 08:54:31;;;;;;;;;;;;;;;19.26;78.99;99393.84;5016428;28;19926;-73
2022/07/31 08:56:59;;;;;;;;;;;;;;;19.33;79.06;99398.72;4998561;28;19926;-73
2022/07/31 08:59:29;;;;;;;;;;;;;;;19.36;79.09;99405.53;4998106;28;20029;-73
2022/07/31 09:01:58;;;;;;;;;;;;;;;19.44;79.07;99400.03;4998423;28;19929;-73
2022/07/31 09:04:29;;;;;;;;;;;;;;;19.50;78.64;99398.06;5014327;28;19936;-73
2022/07/31 09:07:00;;;;;;;;;;;;;;;19.60;77.98;99398.50;4997960;28;19926;-73
2022/07/31 09:09:31;;;;;;;;;;;;;;;19.65;78.01;99407.75;4997958;28;20234;-73
2022/07/31 09:12:27;;;;;;;;;;;;;;;19.67;78.04;99405.97;4997803;28;19929;-73
2022/07/31 09:15:18;;;;;;;;;;;;;;;19.61;77.87;99406.19;5015723;28;19933;-73
2022/07/31 09:17:47;;;;;;;;;;;;;;;19.62;77.93;99404.47;5015335;28;19971;-73
2022/07/31 09:20:22;;;;;;;;;;;;;;;19.51;77.36;99402.31;4981901;28;20036;-73
2022/07/31 09:23:04;;;;;;;;;;;;;;;19.49;77.55;99405.84;4996751;28;19933;-73
2022/07/31 09:25:34;;;;;;;;;;;;;;;19.40;77.38;99412.28;5015281;28;20423;-73
2022/07/31 09:28:04;;;;;;;;;;;;;;;19.42;77.09;99419.97;5015493;28;19980;-73
2022/07/31 09:30:35;;;;;;;;;;;;;;;19.38;77.35;99414.94;4998000;28;19932;-73
2022/07/31 09:33:37;;;;;;;;;;;;;;;19.32;77.51;99415.13;5014962;28;19932;-73
2022/07/31 09:36:23;;;;;;;;;;;;;;;19.30;78.42;99421.28;5015294;28;19925;-73
2022/07/31 09:39:00;;;;;;;;;;;;;;;19.26;78.88;99417.13;4997379;28;19930;-73
2022/07/31 09:41:32;;;;;;;;;;;;;;;19.25;79.16;99418.03;5015295;28;20326;-73
2022/07/31 09:44:41;;;;;;;;;;;;;;;19.22;79.48;99412.97;4997240;28;20426;-73
2022/07/31 09:47:21;;;;;;;;;;;;;;;19.23;79.57;99414.66;4997621;28;19930;-74
2022/07/31 09:49:54;;;;;;;;;;;;;;;19.22;79.87;99420.72;4997230;28;19937;-75
2022/07/31 09:52:23;;;;;;;;;;;;;;;19.19;79.62;99424.31;4996830;28;19976;-75
2022/07/31 09:55:00;;;;;;;;;;;;;;;19.11;79.68;99420.31;4996909;28;19937;-75
2022/07/31 09:57:30;;;;;;;;;;;;;;;19.05;80.07;99423.97;4981260;28;20584;-76
2022/07/31 10:00:00;;;;;;;;;;;;;;;19.04;80.16;99424.06;4997450;28;19972;-76
2022/07/31 10:02:32;;;;;;;;;;;;;;;19.08;80.29;99420.44;5014681;28;19925;-76
2022/07/31 10:05:01;;;;;;;;;;;;;;;19.13;80.30;99413.34;5014395;28;19930;-74
2022/07/31 10:07:34;;;;;;;;;;;;;;;19.07;80.37;99423.94;5014282;28;19937;-74
2022/07/31 10:10:23;;;;;;;;;;;;;;;19.08;79.87;99425.59;5013654;28;19926;-74
2022/07/31 10:13:01;;;;;;;;;;;;;;;19.11;79.79;99425.50;4997040;28;19972;-74
2022/07/31 10:15:32;;;;;;;;;;;;;;;19.13;79.65;99418.50;4996790;28;20414;-76
2022/07/31 10:18:15;;;;;;;;;;;;;;;19.15;79.57;99421.88;5014604;28;19932;-74
2022/07/31 10:20:57;;;;;;;;;;;;;;;19.14;80.05;99420.22;4980857;28;19987;-74
2022/07/31 10:23:47;;;;;;;;;;;;;;;19.16;80.44;99421.00;4996872;28;19925;-74
2022/07/31 10:26:16;;;;;;;;;;;;;;;19.19;80.70;99428.63;5012014;28;19925;-73
2022/07/31 10:28:45;;;;;;;;;;;;;;;19.18;80.82;99425.19;4980633;28;19933;-74
2022/07/31 10:31:14;;;;;;;;;;;;;;;19.24;80.63;99427.53;5012878;28;20117;-74
2022/07/31 10:33:46;;;;;;;;;;;;;;;19.30;80.48;99434.22;4996344;28;19925;-73
2022/07/31 10:36:27;;;;;;;;;;;;;;;19.34;80.44;99438.34;5014050;28;19940;-74
2022/07/31 10:39:05;;;;;;;;;;;;;;;19.28;79.95;99433.44;4996847;28;19949;-74
2022/07/31 10:41:49;;;;;;;;;;;;;;;19.29;79.50;99428.19;5014043;28;19930;-74
2022/07/31 10:44:23;;;;;;;;;;;;;;;19.32;79.37;99435.00;5014283;28;19929;-75
2022/07/31 10:47:11;;;;;;;;;;;;;;;19.33;79.27;99434.94;4998359;28;19925;-76
2022/07/31 10:50:00;;;;;;;;;;;;;;;19.34;79.51;99444.38;5014167;28;19926;-76
2022/07/31 10:52:40;;;;;;;;;;;;;;;19.33;79.61;99447.03;5014146;28;19933;-76
2022/07/31 10:55:15;;;;;;;;;;;;;;;19.25;79.45;99447.34;5013915;28;19925;-76
2022/07/31 10:57:53;;;;;;;;;;;;;;;19.23;79.54;99456.06;5012942;28;19925;-77
2022/07/31 11:00:44;;;;;;;;;;;;;;;19.33;79.69;99457.41;5003208;28;19961;-75
2022/07/31 11:03:24;;;;;;;;;;;;;;;19.40;79.31;99456.28;5014350;28;19925;-76
2022/07/31 11:06:06;;;;;;;;;;;;;;;19.49;78.95;99468.00;5014317;28;19932;-76
2022/07/31 11:08:46;;;;;;;;;;;;;;;19.55;78.95;99458.25;5013606;28;19926;-75
2022/07/31 11:11:36;;;;;;;;;;;;;;;19.53;78.17;99460.03;4996326;28;19925;-75
2022/07/31 11:14:31;;;;;;;;;;;;;;;19.49;76.94;99463.66;4996073;28;20362;-76
2022/07/31 11:17:30;;;;;;;;;;;;;;;19.48;76.54;99462.00;4991884;28;19934;-76
2022/07/31 11:20:30;;;;;;;;;;;;;;;19.55;76.44;99458.25;5013958;28;19932;-76
2022/07/31 11:23:02;;;;;;;;;;;;;;;19.55;76.26;99458.25;4998382;28;19932;-76
2022/07/31 11:25:32;;;;;;;;;;;;;;;19.57;76.51;99461.63;5009522;28;19925;-76
2022/07/31 11:28:10;;;;;;;;;;;;;;;19.59;76.31;99462.41;5013521;28;19929;-75
2022/07/31 11:30:49;;;;;;;;;;;;;;;19.53;75.94;99467.81;4996028;28;20310;-75
2022/07/31 11:33:29;;;;;;;;;;;;;;;19.55;75.79;99463.44;5013408;28;19925;-76
2022/07/31 11:36:10;;;;;;;;;;;;;;;19.52;75.34;99463.56;4995224;28;19933;-76
2022/07/31 11:38:41;;;;;;;;;;;;;;;19.50;75.06;99465.38;5013572;28;19929;-75
2022/07/31 11:41:12;;;;;;;;;;;;;;;19.51;75.27;99466.22;5013564;28;19926;-75
2022/07/31 11:43:45;;;;;;;;;;;;;;;19.41;75.14;99463.16;5013846;28;20035;-75
2022/07/31 11:46:15;;;;;;;;;;;;;;;19.47;75.04;99470.66;5014099;28;19925;-76
2022/07/31 11:48:43;;;;;;;;;;;;;;;19.44;74.94;99465.59;5017695;28;19956;-75
2022/07/31 11:51:17;;;;;;;;;;;;;;;19.42;75.12;99462.22;5016987;28;19932;-75
2022/07/31 11:53:47;;;;;;;;;;;;;;;19.46;75.15;99460.38;5016861;28;19925;-74
2022/07/31 11:56:25;;;;;;;;;;;;;;;19.47;75.28;99460.31;5017024;28;20012;-74
2022/07/31 11:58:54;;;;;;;;;;;;;;;19.48;75.90;99456.81;5016286;28;19926;-75
2022/07/31 12:01:26;;;;;;;;;;;;;;;19.52;75.79;99458.38;5015425;28;19925;-75
2022/07/31 12:03:54;;;;;;;;;;;;;;;19.56;75.92;99457.34;5016916;28;19948;-76
2022/07/31 12:06:23;;;;;;;;;;;;;;;19.58;75.68;99458.09;5016828;28;19925;-76
2022/07/31 12:08:53;;;;;;;;;;;;;;;19.59;75.22;99454.63;5016685;28;20343;-74
2022/07/31 12:11:22;;;;;;;;;;;;;;;19.54;75.40;99453.13;5017288;28;20392;-75
2022/07/31 12:13:51;;;;;;;;;;;;;;;19.54;75.50;99450.53;5016100;28;20523;-75
2022/07/31 12:16:19;;;;;;;;;;;;;;;19.61;75.69;99447.63;5016516;28;19961;-74
2022/07/31 12:18:48;;;;;;;;;;;;;;;19.57;75.86;99453.84;5017010;28;19972;-74
2022/07/31 12:21:18;;;;;;;;;;;;;;;19.50;75.67;99449.84;5016130;28;20288;-74
2022/07/31 12:23:48;;;;;;;;;;;;;;;19.57;75.67;99456.44;5016271;28;19979;-74
2022/07/31 12:26:23;;;;;;;;;;;;;;;19.57;75.90;99453.84;5016349;28;19926;-73
2022/07/31 12:28:58;;;;;;;;;;;;;;;19.50;75.61;99449.84;5016117;28;19926;-73
2022/07/31 12:31:28;;;;;;;;;;;;;;;19.50;75.63;99448.97;5016198;28;19927;-74
2022/07/31 12:33:56;;;;;;;;;;;;;;;19.45;75.89;99459.53;5016040;28;19929;-73
2022/07/31 12:36:25;;;;;;;;;;;;;;;19.42;76.05;99451.88;5016182;28;19980;-73
2022/07/31 12:38:59;;;;;;;;;;;;;;;19.43;75.93;99445.81;5016059;28;19925;-73
2022/07/31 12:41:30;;;;;;;;;;;;;;;19.36;75.89;99441.78;5015734;28;19925;-73
2022/07/31 12:44:08;;;;;;;;;;;;;;;19.35;75.97;99445.22;5015674;28;19925;-73
2022/07/31 12:46:41;;;;;;;;;;;;;;;19.33;76.46;99441.88;5016086;28;19960;-73
2022/07/31 12:49:09;;;;;;;;;;;;;;;19.30;76.68;99445.41;5015840;28;19932;-73
2022/07/31 12:51:38;;;;;;;;;;;;;;;19.30;76.61;99442.81;4998521;28;19932;-73
2022/07/31 12:54:14;;;;;;;;;;;;;;;19.27;76.86;99429.16;5015805;28;19952;-74
2022/07/31 12:56:45;;;;;;;;;;;;;;;19.18;77.04;99421.75;5015685;28;20390;-74
2022/07/31 12:59:14;;;;;;;;;;;;;;;19.21;77.25;99422.50;4997992;28;20290;-75
2022/07/31 13:01:42;;;;;;;;;;;;;;;19.26;77.64;99423.16;4998508;28;19929;-75
2022/07/31 13:04:13;;;;;;;;;;;;;;;19.34;77.80;99423.66;5015666;28;19930;-75
2022/07/31 13:06:50;;;;;;;;;;;;;;;19.30;77.84;99427.31;5015543;28;20391;-75
2022/07/31 13:09:19;;;;;;;;;;;;;;;19.22;78.43;99415.56;4998301;28;19926;-74
2022/07/31 13:11:48;;;;;;;;;;;;;;;19.16;78.57;99424.41;5015477;28;19925;-74
2022/07/31 13:14:24;;;;;;;;;;;;;;;19.08;78.86;99423.03;5015628;28;19932;-74
2022/07/31 13:16:53;;;;;;;;;;;;;;;19.05;79.32;99431.75;5015410;28;20024;-74
2022/07/31 13:19:22;;;;;;;;;;;;;;;19.05;79.79;99415.41;5015566;28;19926;-73
2022/07/31 13:21:50;;;;;;;;;;;;;;;19.01;79.97;99419.84;5015248;28;19925;-73
2022/07/31 13:24:24;;;;;;;;;;;;;;;19.04;80.53;99418.88;5015226;28;19925;-73